sensor_id;sensor_type;location;lat;lon;timestamp;temperature;humidity
13436;DHT22;6790;49.520;8.504;2022-11-12T00:00:43;8.50;99.90
13436;DHT22;6790;49.520;8.504;2022-11-12T00:03:09;8.70;99.90
13436;DHT22;6790;49.520;8.504;2022-11-12T00:05:35;8.60;99.90
13436;DHT22;6790;49.520;8.504;2022-11-12T00:08:01;8.60;99.90
13436;DHT22;6790;49.520;8.504;2022-11-12T00:10:28;8.70;99.90
13436;DHT22;6790;49.520;8.504;2022-11-12T00:12:53;8.60;99.90
13436;DHT22;6790;49.520;8.504;2022-11-12T00:15:20;8.60;99.90
13436;DHT22;6790;49.520;8.504;2022-11-12T00:17:45;8.50;99.90
13436;DHT22;6790;49.520;8.504;2022-11-12T00:20:11;8.50;99.90
13436;DHT22;6790;49.520;8.504;2022-11-12T00:22:37;8.60;99.90
13436;DHT22;6790;49.520;8.504;2022-11-12T00:25:03;8.60;99.90
13436;DHT22;6790;49.520;8.504;2022-11-12T00:27:31;8.40;99.90
13436;DHT22;6790;49.520;8.504;2022-11-12T00:29:57;8.40;99.90
13436;DHT22;6790;49.520;8.504;2022-11-12T00:32:23;8.30;99.90
13436;DHT22;6790;49.520;8.504;2022-11-12T00:34:49;8.40;99.90
13436;DHT22;6790;49.520;8.504;2022-11-12T00:37:15;8.30;99.90
13436;DHT22;6790;49.520;8.504;2022-11-12T00:39:41;8.30;99.90
13436;DHT22;6790;49.520;8.504;2022-11-12T00:42:07;8.40;99.90
13436;DHT22;6790;49.520;8.504;2022-11-12T00:44:33;8.20;99.90
13436;DHT22;6790;49.520;8.504;2022-11-12T00:46:59;8.30;99.90
13436;DHT22;6790;49.520;8.504;2022-11-12T00:49:25;8.30;99.90
13436;DHT22;6790;49.520;8.504;2022-11-12T00:51:50;8.30;99.90
13436;DHT22;6790;49.520;8.504;2022-11-12T00:54:16;8.40;99.90
13436;DHT22;6790;49.520;8.504;2022-11-12T00:56:42;8.30;99.90
13436;DHT22;6790;49.520;8.504;2022-11-12T00:59:10;8.20;99.90
13436;DHT22;6790;49.520;8.504;2022-11-12T01:01:36;8.20;99.90
13436;DHT22;6790;49.520;8.504;2022-11-12T01:04:02;8.20;99.90
13436;DHT22;6790;49.520;8.504;2022-11-12T01:06:28;8.20;99.90
13436;DHT22;6790;49.520;8.504;2022-11-12T01:08:54;8.20;99.90
13436;DHT22;6790;49.520;8.504;2022-11-12T01:11:23;8.20;99.90
13436;DHT22;6790;49.520;8.504;2022-11-12T01:13:56;8.30;99.90
13436;DHT22;6790;49.520;8.504;2022-11-12T01:16:26;8.30;99.90
13436;DHT22;6790;49.520;8.504;2022-11-12T01:18:56;8.20;99.90
13436;DHT22;6790;49.520;8.504;2022-11-12T01:21:25;8.20;99.90
13436;DHT22;6790;49.520;8.504;2022-11-12T01:23:52;8.20;99.90
13436;DHT22;6790;49.520;8.504;2022-11-12T01:26:19;8.10;99.90
13436;DHT22;6790;49.520;8.504;2022-11-12T01:28:47;8.30;99.90
13436;DHT22;6790;49.520;8.504;2022-11-12T01:31:18;8.10;99.90
13436;DHT22;6790;49.520;8.504;2022-11-12T01:33:47;8.20;99.90
13436;DHT22;6790;49.520;8.504;2022-11-12T01:36:15;8.20;99.90
13436;DHT22;6790;49.520;8.504;2022-11-12T01:38:43;8.20;99.90
13436;DHT22;6790;49.520;8.504;2022-11-12T01:41:12;8.20;99.90
13436;DHT22;6790;49.520;8.504;2022-11-12T01:43:40;8.10;99.90
13436;DHT22;6790;49.520;8.504;2022-11-12T01:46:17;8.20;99.90
13436;DHT22;6790;49.520;8.504;2022-11-12T01:48:54;8.30;99.90
13436;DHT22;6790;49.520;8.504;2022-11-12T01:51:25;8.10;99.90
13436;DHT22;6790;49.520;8.504;2022-11-12T01:53:55;8.20;99.90
13436;DHT22;6790;49.520;8.504;2022-11-12T01:56:23;8.10;99.90
13436;DHT22;6790;49.520;8.504;2022-11-12T01:58:54;8.30;99.90
13436;DHT22;6790;49.520;8.504;2022-11-12T02:01:23;8.20;99.90
13436;DHT22;6790;49.520;8.504;2022-11-12T02:03:49;8.10;99.90
13436;DHT22;6790;49.520;8.504;2022-11-12T02:06:15;8.20;99.90
13436;DHT22;6790;49.520;8.504;2022-11-12T02:08:43;8.10;99.90
13436;DHT22;6790;49.520;8.504;2022-11-12T02:11:17;8.00;99.90
13436;DHT22;6790;49.520;8.504;2022-11-12T02:13:46;8.20;99.90
13436;DHT22;6790;49.520;8.504;2022-11-12T02:16:32;8.10;99.90
13436;DHT22;6790;49.520;8.504;2022-11-12T02:19:00;8.10;99.90
13436;DHT22;6790;49.520;8.504;2022-11-12T02:21:27;8.10;99.90
13436;DHT22;6790;49.520;8.504;2022-11-12T02:26:43;8.20;99.90
13436;DHT22;6790;49.520;8.504;2022-11-12T02:29:10;8.10;99.90
13436;DHT22;6790;49.520;8.504;2022-11-12T02:31:36;8.20;99.90
13436;DHT22;6790;49.520;8.504;2022-11-12T02:34:02;8.10;99.90
13436;DHT22;6790;49.520;8.504;2022-11-12T02:36:28;8.20;99.90
13436;DHT22;6790;49.520;8.504;2022-11-12T02:38:54;8.10;99.90
13436;DHT22;6790;49.520;8.504;2022-11-12T02:41:21;8.00;99.90
13436;DHT22;6790;49.520;8.504;2022-11-12T02:43:46;8.10;99.90
13436;DHT22;6790;49.520;8.504;2022-11-12T02:46:13;8.20;99.90
13436;DHT22;6790;49.520;8.504;2022-11-12T02:48:38;8.20;99.90
13436;DHT22;6790;49.520;8.504;2022-11-12T02:51:04;8.10;99.90
13436;DHT22;6790;49.520;8.504;2022-11-12T02:53:30;8.10;99.90
13436;DHT22;6790;49.520;8.504;2022-11-12T02:55:57;8.00;99.90
13436;DHT22;6790;49.520;8.504;2022-11-12T02:58:23;8.10;99.90
13436;DHT22;6790;49.520;8.504;2022-11-12T03:00:49;8.00;99.90
13436;DHT22;6790;49.520;8.504;2022-11-12T03:03:15;8.10;99.90
13436;DHT22;6790;49.520;8.504;2022-11-12T03:05:41;8.10;99.90
13436;DHT22;6790;49.520;8.504;2022-11-12T03:08:07;8.00;99.90
13436;DHT22;6790;49.520;8.504;2022-11-12T03:10:36;8.00;99.90
13436;DHT22;6790;49.520;8.504;2022-11-12T03:13:03;8.00;99.90
13436;DHT22;6790;49.520;8.504;2022-11-12T03:15:30;8.00;99.90
13436;DHT22;6790;49.520;8.504;2022-11-12T03:17:59;8.00;99.90
13436;DHT22;6790;49.520;8.504;2022-11-12T03:20:25;8.00;99.90
13436;DHT22;6790;49.520;8.504;2022-11-12T03:23:06;7.90;99.90
13436;DHT22;6790;49.520;8.504;2022-11-12T03:25:33;8.10;99.90
13436;DHT22;6790;49.520;8.504;2022-11-12T03:28:02;8.00;99.90
13436;DHT22;6790;49.520;8.504;2022-11-12T03:30:33;7.90;99.90
13436;DHT22;6790;49.520;8.504;2022-11-12T03:33:00;8.00;99.90
13436;DHT22;6790;49.520;8.504;2022-11-12T03:35:27;7.90;99.90
13436;DHT22;6790;49.520;8.504;2022-11-12T03:37:52;7.90;99.90
13436;DHT22;6790;49.520;8.504;2022-11-12T03:40:19;8.00;99.90
13436;DHT22;6790;49.520;8.504;2022-11-12T03:42:49;7.90;99.90
13436;DHT22;6790;49.520;8.504;2022-11-12T03:45:16;7.90;99.90
13436;DHT22;6790;49.520;8.504;2022-11-12T03:47:45;7.70;99.90
13436;DHT22;6790;49.520;8.504;2022-11-12T03:50:13;7.90;99.90
13436;DHT22;6790;49.520;8.504;2022-11-12T03:52:44;7.90;99.90
13436;DHT22;6790;49.520;8.504;2022-11-12T03:55:11;7.80;99.90
13436;DHT22;6790;49.520;8.504;2022-11-12T03:57:38;7.90;99.90
13436;DHT22;6790;49.520;8.504;2022-11-12T04:00:07;7.90;99.90
13436;DHT22;6790;49.520;8.504;2022-11-12T04:02:35;8.00;99.90
13436;DHT22;6790;49.520;8.504;2022-11-12T04:05:01;7.90;99.90
13436;DHT22;6790;49.520;8.504;2022-11-12T04:07:59;7.90;99.90
13436;DHT22;6790;49.520;8.504;2022-11-12T04:10:47;7.80;99.90
13436;DHT22;6790;49.520;8.504;2022-11-12T04:13:13;7.80;99.90
13436;DHT22;6790;49.520;8.504;2022-11-12T04:18:49;7.70;99.90
13436;DHT22;6790;49.520;8.504;2022-11-12T04:21:39;7.80;99.90
13436;DHT22;6790;49.520;8.504;2022-11-12T04:24:27;7.70;99.90
13436;DHT22;6790;49.520;8.504;2022-11-12T04:27:34;7.80;99.90
13436;DHT22;6790;49.520;8.504;2022-11-12T04:30:00;7.80;99.90
13436;DHT22;6790;49.520;8.504;2022-11-12T04:32:54;7.60;99.90
13436;DHT22;6790;49.520;8.504;2022-11-12T04:35:22;7.60;99.90
13436;DHT22;6790;49.520;8.504;2022-11-12T04:37:49;7.70;99.90
13436;DHT22;6790;49.520;8.504;2022-11-12T04:40:20;7.60;99.90
13436;DHT22;6790;49.520;8.504;2022-11-12T04:43:09;7.50;99.90
13436;DHT22;6790;49.520;8.504;2022-11-12T04:45:54;7.60;99.90
13436;DHT22;6790;49.520;8.504;2022-11-12T04:48:22;7.70;99.90
13436;DHT22;6790;49.520;8.504;2022-11-12T04:50:59;7.60;99.90
13436;DHT22;6790;49.520;8.504;2022-11-12T04:53:26;7.60;99.90
13436;DHT22;6790;49.520;8.504;2022-11-12T04:55:54;7.50;99.90
13436;DHT22;6790;49.520;8.504;2022-11-12T04:58:21;7.60;99.90
13436;DHT22;6790;49.520;8.504;2022-11-12T05:00:48;7.40;99.90
13436;DHT22;6790;49.520;8.504;2022-11-12T05:03:14;7.50;99.90
13436;DHT22;6790;49.520;8.504;2022-11-12T05:05:41;7.60;99.90
13436;DHT22;6790;49.520;8.504;2022-11-12T05:08:06;7.30;99.90
13436;DHT22;6790;49.520;8.504;2022-11-12T05:10:32;7.40;99.90
13436;DHT22;6790;49.520;8.504;2022-11-12T05:12:58;7.30;99.90
13436;DHT22;6790;49.520;8.504;2022-11-12T05:15:24;7.40;99.90
13436;DHT22;6790;49.520;8.504;2022-11-12T05:17:50;7.30;99.90
13436;DHT22;6790;49.520;8.504;2022-11-12T05:20:16;7.40;99.90
13436;DHT22;6790;49.520;8.504;2022-11-12T05:22:42;7.50;99.90
13436;DHT22;6790;49.520;8.504;2022-11-12T05:25:08;7.40;99.90
13436;DHT22;6790;49.520;8.504;2022-11-12T05:27:34;7.30;99.90
13436;DHT22;6790;49.520;8.504;2022-11-12T05:30:00;7.30;99.90
13436;DHT22;6790;49.520;8.504;2022-11-12T05:32:26;7.30;99.90
13436;DHT22;6790;49.520;8.504;2022-11-12T05:34:52;7.30;99.90
13436;DHT22;6790;49.520;8.504;2022-11-12T05:37:18;7.20;99.90
13436;DHT22;6790;49.520;8.504;2022-11-12T05:39:44;7.20;99.90
13436;DHT22;6790;49.520;8.504;2022-11-12T05:42:10;7.30;99.90
13436;DHT22;6790;49.520;8.504;2022-11-12T05:44:36;7.30;99.90
13436;DHT22;6790;49.520;8.504;2022-11-12T05:47:01;7.20;99.90
13436;DHT22;6790;49.520;8.504;2022-11-12T05:49:27;7.00;99.90
13436;DHT22;6790;49.520;8.504;2022-11-12T05:51:53;7.10;99.90
13436;DHT22;6790;49.520;8.504;2022-11-12T05:54:19;7.20;99.90
13436;DHT22;6790;49.520;8.504;2022-11-12T05:56:45;7.00;99.90
13436;DHT22;6790;49.520;8.504;2022-11-12T05:59:12;7.20;99.90
13436;DHT22;6790;49.520;8.504;2022-11-12T06:01:39;7.10;99.90
13436;DHT22;6790;49.520;8.504;2022-11-12T06:04:13;7.00;99.90
13436;DHT22;6790;49.520;8.504;2022-11-12T06:06:39;7.10;99.90
13436;DHT22;6790;49.520;8.504;2022-11-12T06:09:05;7.00;99.90
13436;DHT22;6790;49.520;8.504;2022-11-12T06:11:32;6.90;99.90
13436;DHT22;6790;49.520;8.504;2022-11-12T06:13:58;7.00;99.90
13436;DHT22;6790;49.520;8.504;2022-11-12T06:16:24;7.00;99.90
13436;DHT22;6790;49.520;8.504;2022-11-12T06:18:49;7.10;99.90
13436;DHT22;6790;49.520;8.504;2022-11-12T06:21:15;7.00;99.90
13436;DHT22;6790;49.520;8.504;2022-11-12T06:24:05;7.00;99.90
13436;DHT22;6790;49.520;8.504;2022-11-12T06:26:30;7.10;99.90
13436;DHT22;6790;49.520;8.504;2022-11-12T06:28:55;7.20;99.90
13436;DHT22;6790;49.520;8.504;2022-11-12T06:31:21;7.10;99.90
13436;DHT22;6790;49.520;8.504;2022-11-12T06:33:48;6.90;99.90
13436;DHT22;6790;49.520;8.504;2022-11-12T06:36:16;7.00;99.90
13436;DHT22;6790;49.520;8.504;2022-11-12T06:38:43;7.00;99.90
13436;DHT22;6790;49.520;8.504;2022-11-12T06:41:11;7.00;99.90
13436;DHT22;6790;49.520;8.504;2022-11-12T06:43:37;6.80;99.90
13436;DHT22;6790;49.520;8.504;2022-11-12T06:46:13;6.80;99.90
13436;DHT22;6790;49.520;8.504;2022-11-12T06:48:40;6.80;99.90
13436;DHT22;6790;49.520;8.504;2022-11-12T06:51:17;6.80;99.90
13436;DHT22;6790;49.520;8.504;2022-11-12T06:53:44;6.90;99.90
13436;DHT22;6790;49.520;8.504;2022-11-12T06:56:10;6.80;99.90
13436;DHT22;6790;49.520;8.504;2022-11-12T06:58:37;6.90;99.90
13436;DHT22;6790;49.520;8.504;2022-11-12T07:01:05;7.00;99.90
13436;DHT22;6790;49.520;8.504;2022-11-12T07:03:32;7.10;99.90
13436;DHT22;6790;49.520;8.504;2022-11-12T07:06:03;7.00;99.90
13436;DHT22;6790;49.520;8.504;2022-11-12T07:08:29;6.90;99.90
13436;DHT22;6790;49.520;8.504;2022-11-12T07:10:55;6.90;99.90
13436;DHT22;6790;49.520;8.504;2022-11-12T07:13:22;6.80;99.90
13436;DHT22;6790;49.520;8.504;2022-11-12T07:15:47;6.90;99.90
13436;DHT22;6790;49.520;8.504;2022-11-12T07:18:13;6.90;99.90
13436;DHT22;6790;49.520;8.504;2022-11-12T07:20:39;7.00;99.90
13436;DHT22;6790;49.520;8.504;2022-11-12T07:23:04;6.90;99.90
13436;DHT22;6790;49.520;8.504;2022-11-12T07:25:30;7.00;99.90
13436;DHT22;6790;49.520;8.504;2022-11-12T07:27:56;6.90;99.90
13436;DHT22;6790;49.520;8.504;2022-11-12T07:30:23;7.00;99.90
13436;DHT22;6790;49.520;8.504;2022-11-12T07:32:48;6.90;99.90
13436;DHT22;6790;49.520;8.504;2022-11-12T07:35:14;6.90;99.90
13436;DHT22;6790;49.520;8.504;2022-11-12T07:37:40;7.10;99.90
13436;DHT22;6790;49.520;8.504;2022-11-12T07:40:06;7.10;99.90
13436;DHT22;6790;49.520;8.504;2022-11-12T07:42:33;6.90;99.90
13436;DHT22;6790;49.520;8.504;2022-11-12T07:44:59;6.80;99.90
13436;DHT22;6790;49.520;8.504;2022-11-12T07:47:25;7.00;99.90
13436;DHT22;6790;49.520;8.504;2022-11-12T07:49:51;7.00;99.90
13436;DHT22;6790;49.520;8.504;2022-11-12T07:52:17;7.20;99.90
13436;DHT22;6790;49.520;8.504;2022-11-12T07:54:43;6.90;99.90
13436;DHT22;6790;49.520;8.504;2022-11-12T07:57:08;6.90;99.90
13436;DHT22;6790;49.520;8.504;2022-11-12T07:59:34;7.00;99.90
13436;DHT22;6790;49.520;8.504;2022-11-12T08:02:00;7.00;99.90
13436;DHT22;6790;49.520;8.504;2022-11-12T08:04:25;7.00;99.90
13436;DHT22;6790;49.520;8.504;2022-11-12T08:06:51;7.00;99.90
13436;DHT22;6790;49.520;8.504;2022-11-12T08:09:17;6.90;99.90
13436;DHT22;6790;49.520;8.504;2022-11-12T08:11:43;7.00;99.90
13436;DHT22;6790;49.520;8.504;2022-11-12T08:14:09;7.00;99.90
13436;DHT22;6790;49.520;8.504;2022-11-12T08:16:35;7.00;99.90
13436;DHT22;6790;49.520;8.504;2022-11-12T08:19:00;7.10;99.90
13436;DHT22;6790;49.520;8.504;2022-11-12T08:21:26;7.40;99.90
13436;DHT22;6790;49.520;8.504;2022-11-12T08:23:52;7.20;99.90
13436;DHT22;6790;49.520;8.504;2022-11-12T08:26:19;7.00;99.90
13436;DHT22;6790;49.520;8.504;2022-11-12T08:28:45;7.20;99.90
13436;DHT22;6790;49.520;8.504;2022-11-12T08:31:16;7.10;99.90
13436;DHT22;6790;49.520;8.504;2022-11-12T08:33:44;7.20;99.90
13436;DHT22;6790;49.520;8.504;2022-11-12T08:36:12;6.90;99.90
13436;DHT22;6790;49.520;8.504;2022-11-12T08:38:39;7.10;99.90
13436;DHT22;6790;49.520;8.504;2022-11-12T08:41:07;7.20;99.90
13436;DHT22;6790;49.520;8.504;2022-11-12T08:43:35;7.00;99.90
13436;DHT22;6790;49.520;8.504;2022-11-12T08:46:01;7.00;99.90
13436;DHT22;6790;49.520;8.504;2022-11-12T08:48:28;7.20;99.90
13436;DHT22;6790;49.520;8.504;2022-11-12T08:50:56;7.30;99.90
13436;DHT22;6790;49.520;8.504;2022-11-12T08:53:23;7.30;99.90
13436;DHT22;6790;49.520;8.504;2022-11-12T08:55:53;7.30;99.90
13436;DHT22;6790;49.520;8.504;2022-11-12T08:58:23;7.30;99.90
13436;DHT22;6790;49.520;8.504;2022-11-12T09:00:49;7.40;99.90
13436;DHT22;6790;49.520;8.504;2022-11-12T09:03:18;7.20;99.90
13436;DHT22;6790;49.520;8.504;2022-11-12T09:05:45;7.40;99.90
13436;DHT22;6790;49.520;8.504;2022-11-12T09:08:14;7.40;99.90
13436;DHT22;6790;49.520;8.504;2022-11-12T09:10:41;7.40;99.90
13436;DHT22;6790;49.520;8.504;2022-11-12T09:13:07;7.40;99.90
13436;DHT22;6790;49.520;8.504;2022-11-12T09:15:33;7.50;99.90
13436;DHT22;6790;49.520;8.504;2022-11-12T09:18:04;7.50;99.90
13436;DHT22;6790;49.520;8.504;2022-11-12T09:20:32;7.40;99.90
13436;DHT22;6790;49.520;8.504;2022-11-12T09:23:00;7.30;99.90
13436;DHT22;6790;49.520;8.504;2022-11-12T09:25:27;7.40;99.90
13436;DHT22;6790;49.520;8.504;2022-11-12T09:27:53;7.50;99.90
13436;DHT22;6790;49.520;8.504;2022-11-12T09:30:19;7.40;99.90
13436;DHT22;6790;49.520;8.504;2022-11-12T09:32:45;7.30;99.90
13436;DHT22;6790;49.520;8.504;2022-11-12T09:35:11;7.30;99.90
13436;DHT22;6790;49.520;8.504;2022-11-12T09:37:37;7.10;99.90
13436;DHT22;6790;49.520;8.504;2022-11-12T09:40:04;7.30;99.90
13436;DHT22;6790;49.520;8.504;2022-11-12T09:42:33;7.10;99.90
13436;DHT22;6790;49.520;8.504;2022-11-12T09:45:18;7.20;99.90
13436;DHT22;6790;49.520;8.504;2022-11-12T09:47:56;7.20;99.90
13436;DHT22;6790;49.520;8.504;2022-11-12T09:50:36;7.30;99.90
13436;DHT22;6790;49.520;8.504;2022-11-12T09:53:17;7.40;99.90
13436;DHT22;6790;49.520;8.504;2022-11-12T09:55:48;7.40;99.90
13436;DHT22;6790;49.520;8.504;2022-11-12T09:58:16;7.30;99.90
13436;DHT22;6790;49.520;8.504;2022-11-12T10:00:53;7.60;99.90
13436;DHT22;6790;49.520;8.504;2022-11-12T10:03:35;7.70;99.90
13436;DHT22;6790;49.520;8.504;2022-11-12T10:06:11;7.60;99.90
13436;DHT22;6790;49.520;8.504;2022-11-12T10:11:57;7.50;99.90
13436;DHT22;6790;49.520;8.504;2022-11-12T10:18:27;7.70;99.90
13436;DHT22;6790;49.520;8.504;2022-11-12T10:23:53;7.80;99.90
13436;DHT22;6790;49.520;8.504;2022-11-12T10:26:21;7.80;99.90
13436;DHT22;6790;49.520;8.504;2022-11-12T10:31:40;7.70;99.90
13436;DHT22;6790;49.520;8.504;2022-11-12T10:36:40;7.70;99.90
13436;DHT22;6790;49.520;8.504;2022-11-12T10:39:08;7.70;99.90
13436;DHT22;6790;49.520;8.504;2022-11-12T10:41:34;8.00;99.90
13436;DHT22;6790;49.520;8.504;2022-11-12T10:44:05;7.80;99.90
13436;DHT22;6790;49.520;8.504;2022-11-12T10:46:34;8.00;99.90
13436;DHT22;6790;49.520;8.504;2022-11-12T10:51:39;7.80;99.90
13436;DHT22;6790;49.520;8.504;2022-11-12T10:54:28;7.90;99.90
13436;DHT22;6790;49.520;8.504;2022-11-12T10:56:55;7.90;99.90
13436;DHT22;6790;49.520;8.504;2022-11-12T10:59:24;7.70;99.90
13436;DHT22;6790;49.520;8.504;2022-11-12T11:01:56;7.70;99.90
13436;DHT22;6790;49.520;8.504;2022-11-12T11:04:36;7.60;99.90
13436;DHT22;6790;49.520;8.504;2022-11-12T11:09:52;7.80;99.90
13436;DHT22;6790;49.520;8.504;2022-11-12T11:12:31;7.80;99.90
13436;DHT22;6790;49.520;8.504;2022-11-12T11:17:35;7.90;99.90
13436;DHT22;6790;49.520;8.504;2022-11-12T11:20:02;7.90;99.90
13436;DHT22;6790;49.520;8.504;2022-11-12T11:22:41;7.80;99.90
13436;DHT22;6790;49.520;8.504;2022-11-12T11:25:24;7.90;99.90
13436;DHT22;6790;49.520;8.504;2022-11-12T11:30:58;7.90;99.90
13436;DHT22;6790;49.520;8.504;2022-11-12T11:33:47;8.00;99.90
13436;DHT22;6790;49.520;8.504;2022-11-12T11:37:00;7.80;99.90
13436;DHT22;6790;49.520;8.504;2022-11-12T11:40:09;8.00;99.90
13436;DHT22;6790;49.520;8.504;2022-11-12T11:45:46;8.00;99.90
13436;DHT22;6790;49.520;8.504;2022-11-12T11:57:22;8.10;99.90
13436;DHT22;6790;49.520;8.504;2022-11-12T12:00:06;8.00;99.90
13436;DHT22;6790;49.520;8.504;2022-11-12T12:10:49;8.00;99.90
13436;DHT22;6790;49.520;8.504;2022-11-12T12:13:36;8.00;99.90
13436;DHT22;6790;49.520;8.504;2022-11-12T12:21:52;7.90;99.90
13436;DHT22;6790;49.520;8.504;2022-11-12T12:24:36;8.00;99.90
13436;DHT22;6790;49.520;8.504;2022-11-12T12:27:21;8.00;99.90
13436;DHT22;6790;49.520;8.504;2022-11-12T12:29:54;8.00;99.90
13436;DHT22;6790;49.520;8.504;2022-11-12T12:35:01;8.10;99.90
13436;DHT22;6790;49.520;8.504;2022-11-12T12:37:35;8.10;99.90
13436;DHT22;6790;49.520;8.504;2022-11-12T12:40:16;8.10;99.90
13436;DHT22;6790;49.520;8.504;2022-11-12T12:43:04;8.20;99.90
13436;DHT22;6790;49.520;8.504;2022-11-12T12:45:43;8.20;99.90
13436;DHT22;6790;49.520;8.504;2022-11-12T12:48:19;8.30;99.90
13436;DHT22;6790;49.520;8.504;2022-11-12T12:50:55;8.30;99.90
13436;DHT22;6790;49.520;8.504;2022-11-12T13:01:24;8.10;99.90
13436;DHT22;6790;49.520;8.504;2022-11-12T13:04:07;8.10;99.90
13436;DHT22;6790;49.520;8.504;2022-11-12T13:19:35;8.30;99.90
13436;DHT22;6790;49.520;8.504;2022-11-12T13:43:03;8.10;99.90
13436;DHT22;6790;49.520;8.504;2022-11-12T13:49:05;8.20;99.90
13436;DHT22;6790;49.520;8.504;2022-11-12T13:51:41;8.10;99.90
13436;DHT22;6790;49.520;8.504;2022-11-12T13:54:27;8.10;99.90
13436;DHT22;6790;49.520;8.504;2022-11-12T13:59:45;8.10;99.90
13436;DHT22;6790;49.520;8.504;2022-11-12T14:02:25;8.10;99.90
13436;DHT22;6790;49.520;8.504;2022-11-12T14:04:51;8.10;99.90
13436;DHT22;6790;49.520;8.504;2022-11-12T14:14:20;7.90;99.90
13436;DHT22;6790;49.520;8.504;2022-11-12T14:20:23;7.80;99.90
13436;DHT22;6790;49.520;8.504;2022-11-12T14:22:52;8.00;99.90
13436;DHT22;6790;49.520;8.504;2022-11-12T14:25:19;8.10;99.90
13436;DHT22;6790;49.520;8.504;2022-11-12T14:27:48;8.10;99.90
13436;DHT22;6790;49.520;8.504;2022-11-12T14:30:24;8.10;99.90
13436;DHT22;6790;49.520;8.504;2022-11-12T14:33:16;8.10;99.90
13436;DHT22;6790;49.520;8.504;2022-11-12T14:35:44;8.10;99.90
13436;DHT22;6790;49.520;8.504;2022-11-12T14:38:30;8.00;99.90
13436;DHT22;6790;49.520;8.504;2022-11-12T14:41:17;8.10;99.90
13436;DHT22;6790;49.520;8.504;2022-11-12T14:43:55;8.00;99.90
13436;DHT22;6790;49.520;8.504;2022-11-12T14:46:23;8.10;99.90
13436;DHT22;6790;49.520;8.504;2022-11-12T14:49:21;8.00;99.90
13436;DHT22;6790;49.520;8.504;2022-11-12T14:52:16;7.90;99.90
13436;DHT22;6790;49.520;8.504;2022-11-12T14:54:47;7.80;99.90
13436;DHT22;6790;49.520;8.504;2022-11-12T14:57:26;7.90;99.90
13436;DHT22;6790;49.520;8.504;2022-11-12T14:59:54;7.90;99.90
13436;DHT22;6790;49.520;8.504;2022-11-12T15:02:26;7.90;99.90
13436;DHT22;6790;49.520;8.504;2022-11-12T15:05:02;7.80;99.90
13436;DHT22;6790;49.520;8.504;2022-11-12T15:13:08;7.80;99.90
13436;DHT22;6790;49.520;8.504;2022-11-12T15:15:36;7.80;99.90
13436;DHT22;6790;49.520;8.504;2022-11-12T15:18:06;7.80;99.90
13436;DHT22;6790;49.520;8.504;2022-11-12T15:20:42;7.70;99.90
13436;DHT22;6790;49.520;8.504;2022-11-12T15:23:15;7.80;99.90
13436;DHT22;6790;49.520;8.504;2022-11-12T15:25:42;7.70;99.90
13436;DHT22;6790;49.520;8.504;2022-11-12T15:28:22;7.70;99.90
13436;DHT22;6790;49.520;8.504;2022-11-12T15:31:21;7.70;99.90
13436;DHT22;6790;49.520;8.504;2022-11-12T15:33:47;7.70;99.90
13436;DHT22;6790;49.520;8.504;2022-11-12T15:36:16;7.70;99.90
13436;DHT22;6790;49.520;8.504;2022-11-12T15:38:53;7.60;99.90
13436;DHT22;6790;49.520;8.504;2022-11-12T15:41:25;7.80;99.90
13436;DHT22;6790;49.520;8.504;2022-11-12T15:43:52;7.60;99.90
13436;DHT22;6790;49.520;8.504;2022-11-12T15:46:18;7.70;99.90
13436;DHT22;6790;49.520;8.504;2022-11-12T15:48:44;7.60;99.90
13436;DHT22;6790;49.520;8.504;2022-11-12T15:51:10;7.70;99.90
13436;DHT22;6790;49.520;8.504;2022-11-12T15:53:36;7.70;99.90
13436;DHT22;6790;49.520;8.504;2022-11-12T15:56:02;7.60;99.90
13436;DHT22;6790;49.520;8.504;2022-11-12T15:58:34;7.50;99.90
13436;DHT22;6790;49.520;8.504;2022-11-12T16:01:02;7.50;99.90
13436;DHT22;6790;49.520;8.504;2022-11-12T16:03:28;7.50;99.90
13436;DHT22;6790;49.520;8.504;2022-11-12T16:05:54;7.60;99.90
13436;DHT22;6790;49.520;8.504;2022-11-12T16:08:20;7.50;99.90
13436;DHT22;6790;49.520;8.504;2022-11-12T16:10:46;7.50;99.90
13436;DHT22;6790;49.520;8.504;2022-11-12T16:13:25;7.50;99.90
13436;DHT22;6790;49.520;8.504;2022-11-12T16:15:51;7.40;99.90
13436;DHT22;6790;49.520;8.504;2022-11-12T16:20:51;7.40;99.90
13436;DHT22;6790;49.520;8.504;2022-11-12T16:23:17;7.50;99.90
13436;DHT22;6790;49.520;8.504;2022-11-12T16:25:43;7.50;99.90
13436;DHT22;6790;49.520;8.504;2022-11-12T16:28:13;7.50;99.90
13436;DHT22;6790;49.520;8.504;2022-11-12T16:30:40;7.50;99.90
13436;DHT22;6790;49.520;8.504;2022-11-12T16:33:08;7.50;99.90
13436;DHT22;6790;49.520;8.504;2022-11-12T16:35:34;7.60;99.90
13436;DHT22;6790;49.520;8.504;2022-11-12T16:38:00;7.50;99.90
13436;DHT22;6790;49.520;8.504;2022-11-12T16:40:28;7.50;99.90
13436;DHT22;6790;49.520;8.504;2022-11-12T16:42:55;7.60;99.90
13436;DHT22;6790;49.520;8.504;2022-11-12T16:45:23;7.50;99.90
13436;DHT22;6790;49.520;8.504;2022-11-12T16:47:54;7.60;99.90
13436;DHT22;6790;49.520;8.504;2022-11-12T16:50:26;7.50;99.90
13436;DHT22;6790;49.520;8.504;2022-11-12T16:52:52;7.60;99.90
13436;DHT22;6790;49.520;8.504;2022-11-12T16:55:19;7.50;99.90
13436;DHT22;6790;49.520;8.504;2022-11-12T16:57:45;7.40;99.90
13436;DHT22;6790;49.520;8.504;2022-11-12T17:00:16;7.40;99.90
13436;DHT22;6790;49.520;8.504;2022-11-12T17:02:42;7.50;99.90
13436;DHT22;6790;49.520;8.504;2022-11-12T17:05:16;7.40;99.90
13436;DHT22;6790;49.520;8.504;2022-11-12T17:07:45;7.50;99.90
13436;DHT22;6790;49.520;8.504;2022-11-12T17:10:11;7.40;99.90
13436;DHT22;6790;49.520;8.504;2022-11-12T17:12:37;7.40;99.90
13436;DHT22;6790;49.520;8.504;2022-11-12T17:15:03;7.50;99.90
13436;DHT22;6790;49.520;8.504;2022-11-12T17:17:30;7.50;99.90
13436;DHT22;6790;49.520;8.504;2022-11-12T17:19:55;7.50;99.90
13436;DHT22;6790;49.520;8.504;2022-11-12T17:22:21;7.50;99.90
13436;DHT22;6790;49.520;8.504;2022-11-12T17:24:47;7.50;99.90
13436;DHT22;6790;49.520;8.504;2022-11-12T17:27:13;7.60;99.90
13436;DHT22;6790;49.520;8.504;2022-11-12T17:29:38;7.50;99.90
13436;DHT22;6790;49.520;8.504;2022-11-12T17:32:04;7.50;99.90
13436;DHT22;6790;49.520;8.504;2022-11-12T17:34:30;7.60;99.90
13436;DHT22;6790;49.520;8.504;2022-11-12T17:36:55;7.70;99.90
13436;DHT22;6790;49.520;8.504;2022-11-12T17:39:21;7.60;99.90
13436;DHT22;6790;49.520;8.504;2022-11-12T17:41:48;7.60;99.90
13436;DHT22;6790;49.520;8.504;2022-11-12T17:44:15;7.70;99.90
13436;DHT22;6790;49.520;8.504;2022-11-12T17:46:43;7.60;99.90
13436;DHT22;6790;49.520;8.504;2022-11-12T17:49:18;7.60;99.90
13436;DHT22;6790;49.520;8.504;2022-11-12T17:51:44;7.70;99.90
13436;DHT22;6790;49.520;8.504;2022-11-12T17:54:10;7.70;99.90
13436;DHT22;6790;49.520;8.504;2022-11-12T17:56:35;7.70;99.90
13436;DHT22;6790;49.520;8.504;2022-11-12T17:59:01;7.70;99.90
13436;DHT22;6790;49.520;8.504;2022-11-12T18:01:29;7.80;99.90
13436;DHT22;6790;49.520;8.504;2022-11-12T18:03:56;7.60;99.90
13436;DHT22;6790;49.520;8.504;2022-11-12T18:06:27;7.60;99.90
13436;DHT22;6790;49.520;8.504;2022-11-12T18:08:59;7.60;99.90
13436;DHT22;6790;49.520;8.504;2022-11-12T18:11:29;7.70;99.90
13436;DHT22;6790;49.520;8.504;2022-11-12T18:13:57;7.70;99.90
13436;DHT22;6790;49.520;8.504;2022-11-12T18:16:27;7.60;99.90
13436;DHT22;6790;49.520;8.504;2022-11-12T18:18:54;7.60;99.90
13436;DHT22;6790;49.520;8.504;2022-11-12T18:21:22;7.80;99.90
13436;DHT22;6790;49.520;8.504;2022-11-12T18:23:48;7.60;99.90
13436;DHT22;6790;49.520;8.504;2022-11-12T18:26:15;7.70;99.90